sensor_id;sensor_type;location;lat;lon;timestamp;pressure;altitude;pressure_sealevel;temperature;humidity
19150;BME280;9707;49.158;8.632;2023-02-01T00:01:23;101082.66;;;16.15;36.38
19150;BME280;9707;49.158;8.632;2023-02-01T00:03:48;101073.72;;;16.15;36.38
19150;BME280;9707;49.158;8.632;2023-02-01T00:06:14;101079.25;;;16.12;36.38
19150;BME280;9707;49.158;8.632;2023-02-01T00:08:39;101080.22;;;16.11;36.35
19150;BME280;9707;49.158;8.632;2023-02-01T00:11:10;101076.63;;;16.10;36.42
19150;BME280;9707;49.158;8.632;2023-02-01T00:13:38;101081.13;;;16.10;36.14
19150;BME280;9707;49.158;8.632;2023-02-01T00:16:05;101076.72;;;16.09;36.40
19150;BME280;9707;49.158;8.632;2023-02-01T00:18:31;101079.41;;;16.09;36.22
19150;BME280;9707;49.158;8.632;2023-02-01T00:20:56;101076.72;;;16.09;36.20
19150;BME280;9707;49.158;8.632;2023-02-01T00:23:22;101066.78;;;16.11;36.16
19150;BME280;9707;49.158;8.632;2023-02-01T00:25:47;101058.84;;;16.08;36.41
19150;BME280;9707;49.158;8.632;2023-02-01T00:28:12;101061.53;;;16.08;36.39
19150;BME280;9707;49.158;8.632;2023-02-01T00:30:38;101063.38;;;16.07;36.20
19150;BME280;9707;49.158;8.632;2023-02-01T00:33:03;101061.72;;;16.05;36.03
19150;BME280;9707;49.158;8.632;2023-02-01T00:35:29;101059.88;;;16.05;36.32
19150;BME280;9707;49.158;8.632;2023-02-01T00:37:54;101045.47;;;16.06;36.52
19150;BME280;9707;49.158;8.632;2023-02-01T00:40:19;101047.25;;;16.07;36.43
19150;BME280;9707;49.158;8.632;2023-02-01T00:42:44;101049.84;;;16.09;36.38
19150;BME280;9707;49.158;8.632;2023-02-01T00:45:10;101038.13;;;16.10;36.41
19150;BME280;9707;49.158;8.632;2023-02-01T00:47:35;101034.59;;;16.09;36.26
19150;BME280;9707;49.158;8.632;2023-02-01T00:50:00;101034.59;;;16.09;36.31
19150;BME280;9707;49.158;8.632;2023-02-01T00:52:26;101033.88;;;16.06;36.17
19150;BME280;9707;49.158;8.632;2023-02-01T00:54:51;101042.00;;;16.04;36.26
19150;BME280;9707;49.158;8.632;2023-02-01T00:57:16;101043.03;;;16.02;36.11
19150;BME280;9707;49.158;8.632;2023-02-01T00:59:41;101046.69;;;16.01;36.13
19150;BME280;9707;49.158;8.632;2023-02-01T01:02:07;101047.63;;;16.00;36.46
19150;BME280;9707;49.158;8.632;2023-02-01T01:04:32;101047.63;;;16.00;36.52
19150;BME280;9707;49.158;8.632;2023-02-01T01:06:57;101055.69;;;16.00;36.52
19150;BME280;9707;49.158;8.632;2023-02-01T01:09:22;101050.31;;;16.00;36.23
19150;BME280;9707;49.158;8.632;2023-02-01T01:11:48;101053.94;;;15.99;36.16
19150;BME280;9707;49.158;8.632;2023-02-01T01:14:13;101053.94;;;15.99;36.16
19150;BME280;9707;49.158;8.632;2023-02-01T01:16:38;101073.56;;;16.01;36.59
19150;BME280;9707;49.158;8.632;2023-02-01T01:19:04;101061.91;;;16.00;36.37
19150;BME280;9707;49.158;8.632;2023-02-01T01:21:30;101060.25;;;15.98;36.08
19150;BME280;9707;49.158;8.632;2023-02-01T01:23:56;101069.28;;;15.97;36.26
19150;BME280;9707;49.158;8.632;2023-02-01T01:26:24;101055.84;;;15.97;36.15
19150;BME280;9707;49.158;8.632;2023-02-01T01:28:50;101066.59;;;15.97;36.15
19150;BME280;9707;49.158;8.632;2023-02-01T01:31:18;101070.06;;;15.99;36.34
19150;BME280;9707;49.158;8.632;2023-02-01T01:33:43;101070.06;;;15.99;36.51
19150;BME280;9707;49.158;8.632;2023-02-01T01:36:10;101071.81;;;16.00;36.50
19150;BME280;9707;49.158;8.632;2023-02-01T01:38:37;101068.19;;;16.01;35.94
19150;BME280;9707;49.158;8.632;2023-02-01T01:41:03;101053.78;;;16.02;36.13
19150;BME280;9707;49.158;8.632;2023-02-01T01:43:47;101051.88;;;16.04;36.19
19150;BME280;9707;49.158;8.632;2023-02-01T01:46:34;101050.16;;;16.03;36.22
19150;BME280;9707;49.158;8.632;2023-02-01T01:49:13;101055.53;;;16.03;36.24
19150;BME280;9707;49.158;8.632;2023-02-01T01:51:47;101051.88;;;16.04;36.38
19150;BME280;9707;49.158;8.632;2023-02-01T01:54:17;101049.06;;;16.07;35.96
19150;BME280;9707;49.158;8.632;2023-02-01T01:56:46;101040.03;;;16.08;36.18
19150;BME280;9707;49.158;8.632;2023-02-01T01:59:14;101039.09;;;16.09;36.21
19150;BME280;9707;49.158;8.632;2023-02-01T02:01:39;101030.06;;;16.10;36.11
19150;BME280;9707;49.158;8.632;2023-02-01T02:04:05;101030.06;;;16.10;36.24
19150;BME280;9707;49.158;8.632;2023-02-01T02:06:42;101028.25;;;16.10;36.26
19150;BME280;9707;49.158;8.632;2023-02-01T02:09:10;101031.97;;;16.08;36.12
19150;BME280;9707;49.158;8.632;2023-02-01T02:11:36;101012.22;;;16.09;36.16
19150;BME280;9707;49.158;8.632;2023-02-01T02:14:02;101004.06;;;16.10;36.13
19150;BME280;9707;49.158;8.632;2023-02-01T02:16:52;100998.78;;;16.09;36.22
19150;BME280;9707;49.158;8.632;2023-02-01T02:34:03;101002.72;;;16.02;35.92
19150;BME280;9707;49.158;8.632;2023-02-01T02:36:52;100985.84;;;16.00;35.73
19150;BME280;9707;49.158;8.632;2023-02-01T02:39:44;100993.00;;;15.99;36.18
19150;BME280;9707;49.158;8.632;2023-02-01T02:42:30;101006.53;;;15.98;36.07
19150;BME280;9707;49.158;8.632;2023-02-01T02:45:48;101034.34;;;15.97;35.91
19150;BME280;9707;49.158;8.632;2023-02-01T02:48:51;101030.88;;;15.95;35.82
19150;BME280;9707;49.158;8.632;2023-02-01T02:51:23;101026.28;;;15.97;36.01
19150;BME280;9707;49.158;8.632;2023-02-01T02:54:12;101028.97;;;15.97;36.03
19150;BME280;9707;49.158;8.632;2023-02-01T02:56:58;101033.38;;;15.98;36.13
19150;BME280;9707;49.158;8.632;2023-02-01T02:59:44;101019.81;;;16.01;36.18
19150;BME280;9707;49.158;8.632;2023-02-01T03:02:30;101022.25;;;16.05;36.19
19150;BME280;9707;49.158;8.632;2023-02-01T03:05:15;101008.75;;;16.07;36.14
19150;BME280;9707;49.158;8.632;2023-02-01T03:08:02;101008.66;;;16.08;35.95
19150;BME280;9707;49.158;8.632;2023-02-01T03:10:51;101012.22;;;16.09;36.20
19150;BME280;9707;49.158;8.632;2023-02-01T03:18:44;100986.13;;;16.11;35.88
19150;BME280;9707;49.158;8.632;2023-02-01T03:21:19;100976.16;;;16.13;36.37
19150;BME280;9707;49.158;8.632;2023-02-01T03:23:48;100973.41;;;16.14;35.81
19150;BME280;9707;49.158;8.632;2023-02-01T03:26:17;100970.72;;;16.14;35.90
19150;BME280;9707;49.158;8.632;2023-02-01T03:28:55;100979.81;;;16.12;36.05
19150;BME280;9707;49.158;8.632;2023-02-01T03:31:22;100965.41;;;16.13;36.17
19150;BME280;9707;49.158;8.632;2023-02-01T03:33:48;100979.63;;;16.15;35.87
19150;BME280;9707;49.158;8.632;2023-02-01T03:36:27;100976.03;;;16.16;36.04
19150;BME280;9707;49.158;8.632;2023-02-01T03:39:05;100983.13;;;16.17;35.81
19150;BME280;9707;49.158;8.632;2023-02-01T03:44:11;100978.84;;;16.13;36.13
19150;BME280;9707;49.158;8.632;2023-02-01T03:49:18;100995.75;;;16.15;36.25
19150;BME280;9707;49.158;8.632;2023-02-01T03:51:45;100985.00;;;16.15;36.15
19150;BME280;9707;49.158;8.632;2023-02-01T03:54:13;100983.13;;;16.17;35.86
19150;BME280;9707;49.158;8.632;2023-02-01T03:56:43;100983.13;;;16.17;36.10
19150;BME280;9707;49.158;8.632;2023-02-01T03:59:10;100980.25;;;16.20;36.17
19150;BME280;9707;49.158;8.632;2023-02-01T04:01:35;100982.94;;;16.20;36.10
19150;BME280;9707;49.158;8.632;2023-02-01T04:04:00;101003.53;;;16.21;36.05
19150;BME280;9707;49.158;8.632;2023-02-01T04:06:26;101005.25;;;16.22;36.05
19150;BME280;9707;49.158;8.632;2023-02-01T04:08:51;100993.69;;;16.20;36.16
19150;BME280;9707;49.158;8.632;2023-02-01T04:11:17;100990.94;;;16.21;36.01
19150;BME280;9707;49.158;8.632;2023-02-01T04:13:43;100976.66;;;16.21;35.76
19150;BME280;9707;49.158;8.632;2023-02-01T04:16:08;100982.09;;;16.19;35.92
19150;BME280;9707;49.158;8.632;2023-02-01T04:18:34;100984.84;;;16.18;36.13
19150;BME280;9707;49.158;8.632;2023-02-01T04:21:00;100982.16;;;16.18;36.11
19150;BME280;9707;49.158;8.632;2023-02-01T04:23:26;100970.66;;;16.16;36.09
19150;BME280;9707;49.158;8.632;2023-02-01T04:25:52;100962.66;;;16.14;36.09
19150;BME280;9707;49.158;8.632;2023-02-01T04:28:17;100965.41;;;16.13;36.47
19150;BME280;9707;49.158;8.632;2023-02-01T04:30:43;100961.78;;;16.14;36.21
19150;BME280;9707;49.158;8.632;2023-02-01T04:33:08;100968.09;;;16.13;36.50
19150;BME280;9707;49.158;8.632;2023-02-01T04:35:34;100955.53;;;16.13;36.12
19150;BME280;9707;49.158;8.632;2023-02-01T04:38:00;100943.91;;;16.13;36.22
19150;BME280;9707;49.158;8.632;2023-02-01T04:40:25;100925.97;;;16.13;36.03
19150;BME280;9707;49.158;8.632;2023-02-01T04:42:50;100931.44;;;16.12;35.97
19150;BME280;9707;49.158;8.632;2023-02-01T04:45:16;100945.81;;;16.11;36.28
19150;BME280;9707;49.158;8.632;2023-02-01T04:47:41;100950.31;;;16.10;36.05
19150;BME280;9707;49.158;8.632;2023-02-01T04:50:07;100954.81;;;16.10;36.21
19150;BME280;9707;49.158;8.632;2023-02-01T04:52:35;100958.47;;;16.09;36.32
19150;BME280;9707;49.158;8.632;2023-02-01T04:55:00;100948.66;;;16.08;36.33
19150;BME280;9707;49.158;8.632;2023-02-01T04:57:28;100951.59;;;16.03;36.29
19150;BME280;9707;49.158;8.632;2023-02-01T04:59:53;100949.94;;;16.01;36.28
19150;BME280;9707;49.158;8.632;2023-02-01T05:02:18;100950.09;;;15.98;36.75
19150;BME280;9707;49.158;8.632;2023-02-01T05:04:43;100948.34;;;15.97;36.51
19150;BME280;9707;49.158;8.632;2023-02-01T05:07:09;100938.56;;;15.96;36.69
19150;BME280;9707;49.158;8.632;2023-02-01T05:09:34;100930.50;;;15.96;36.49
19150;BME280;9707;49.158;8.632;2023-02-01T05:11:59;100930.50;;;15.96;36.84
19150;BME280;9707;49.158;8.632;2023-02-01T05:14:43;100952.97;;;15.95;36.58
19150;BME280;9707;49.158;8.632;2023-02-01T05:17:08;100964.56;;;15.95;37.02
19150;BME280;9707;49.158;8.632;2023-02-01T05:19:34;100982.50;;;15.95;36.62
19150;BME280;9707;49.158;8.632;2023-02-01T05:21:59;100990.63;;;15.93;36.61
19150;BME280;9707;49.158;8.632;2023-02-01T05:24:24;100995.13;;;15.93;37.04
19150;BME280;9707;49.158;8.632;2023-02-01T05:26:49;101001.47;;;15.92;36.59
19150;BME280;9707;49.158;8.632;2023-02-01T05:29:16;100999.72;;;15.91;36.95
19150;BME280;9707;49.158;8.632;2023-02-01T05:31:44;101007.78;;;15.91;37.04
19150;BME280;9707;49.158;8.632;2023-02-01T05:34:10;101013.16;;;15.91;36.96
19150;BME280;9707;49.158;8.632;2023-02-01T05:36:35;101000.50;;;15.93;37.00
19150;BME280;9707;49.158;8.632;2023-02-01T05:39:00;101003.13;;;15.94;36.90
19150;BME280;9707;49.158;8.632;2023-02-01T05:41:26;101000.38;;;15.96;37.00
19150;BME280;9707;49.158;8.632;2023-02-01T05:43:51;101004.78;;;15.97;36.97
19150;BME280;9707;49.158;8.632;2023-02-01T05:46:16;101001.16;;;15.98;36.59
19150;BME280;9707;49.158;8.632;2023-02-01T05:48:42;101001.94;;;16.00;36.58
19150;BME280;9707;49.158;8.632;2023-02-01T05:51:09;101003.69;;;16.01;36.80
19150;BME280;9707;49.158;8.632;2023-02-01T05:53:35;100999.28;;;16.00;37.06
19150;BME280;9707;49.158;8.632;2023-02-01T05:56:00;101007.31;;;16.00;37.30
19150;BME280;9707;49.158;8.632;2023-02-01T05:58:25;101014.44;;;16.01;37.25
19150;BME280;9707;49.158;8.632;2023-02-01T06:00:51;101012.69;;;16.00;37.26
19150;BME280;9707;49.158;8.632;2023-02-01T06:03:16;101017.25;;;15.98;37.51
19150;BME280;9707;49.158;8.632;2023-02-01T06:05:44;101010.94;;;15.99;37.34
19150;BME280;9707;49.158;8.632;2023-02-01T06:08:10;101001.94;;;16.00;37.73
19150;BME280;9707;49.158;8.632;2023-02-01T06:10:35;101014.44;;;16.01;37.44
19150;BME280;9707;49.158;8.632;2023-02-01T06:13:00;101007.31;;;16.00;37.48
19150;BME280;9707;49.158;8.632;2023-02-01T06:15:25;101005.56;;;15.99;37.81
19150;BME280;9707;49.158;8.632;2023-02-01T06:17:51;101000.19;;;15.99;37.86
19150;BME280;9707;49.158;8.632;2023-02-01T06:20:17;100999.28;;;16.00;37.57
19150;BME280;9707;49.158;8.632;2023-02-01T06:22:42;101001.78;;;16.03;37.35
19150;BME280;9707;49.158;8.632;2023-02-01T06:25:09;101003.50;;;16.04;37.43
19150;BME280;9707;49.158;8.632;2023-02-01T06:27:34;101004.16;;;16.09;37.56
19150;BME280;9707;49.158;8.632;2023-02-01T06:30:00;100997.75;;;16.11;37.42
19150;BME280;9707;49.158;8.632;2023-02-01T06:32:26;101002.97;;;16.14;37.22
19150;BME280;9707;49.158;8.632;2023-02-01T06:34:51;101009.19;;;16.15;37.24
19150;BME280;9707;49.158;8.632;2023-02-01T06:37:21;101019.03;;;16.16;37.17
19150;BME280;9707;49.158;8.632;2023-02-01T06:39:48;101028.81;;;16.17;37.11
19150;BME280;9707;49.158;8.632;2023-02-01T06:42:13;101033.25;;;16.18;37.23
19150;BME280;9707;49.158;8.632;2023-02-01T06:44:38;101040.34;;;16.19;37.60
19150;BME280;9707;49.158;8.632;2023-02-01T06:47:04;101031.34;;;16.20;37.11
19150;BME280;9707;49.158;8.632;2023-02-01T06:49:29;101040.34;;;16.19;37.25
19150;BME280;9707;49.158;8.632;2023-02-01T06:51:54;101047.31;;;16.23;37.35
19150;BME280;9707;49.158;8.632;2023-02-01T06:54:20;101050.72;;;16.26;37.42
19150;BME280;9707;49.158;8.632;2023-02-01T06:56:45;101038.84;;;16.30;37.41
19150;BME280;9707;49.158;8.632;2023-02-01T06:59:11;101033.16;;;16.36;36.74
19150;BME280;9707;49.158;8.632;2023-02-01T07:01:36;101042.78;;;16.42;36.81
19150;BME280;9707;49.158;8.632;2023-02-01T07:04:02;101036.28;;;16.46;36.90
19150;BME280;9707;49.158;8.632;2023-02-01T07:06:27;101050.44;;;16.49;36.78
19150;BME280;9707;49.158;8.632;2023-02-01T07:08:52;101064.97;;;16.45;36.73
19150;BME280;9707;49.158;8.632;2023-02-01T07:11:21;101057.16;;;16.41;37.12
19150;BME280;9707;49.158;8.632;2023-02-01T07:13:46;101046.53;;;16.38;37.50
19150;BME280;9707;49.158;8.632;2023-02-01T07:16:14;101049.28;;;16.36;37.50
19150;BME280;9707;49.158;8.632;2023-02-01T07:18:40;101046.59;;;16.36;37.32
19150;BME280;9707;49.158;8.632;2023-02-01T07:21:05;101039.50;;;16.35;37.47
19150;BME280;9707;49.158;8.632;2023-02-01T07:23:31;101045.81;;;16.34;37.39
19150;BME280;9707;49.158;8.632;2023-02-01T07:25:58;101045.00;;;16.32;37.52
19150;BME280;9707;49.158;8.632;2023-02-01T07:28:24;101045.13;;;16.31;37.60
19150;BME280;9707;49.158;8.632;2023-02-01T07:30:50;101049.69;;;16.29;37.38
19150;BME280;9707;49.158;8.632;2023-02-01T07:33:24;101049.75;;;16.27;37.73
19150;BME280;9707;49.158;8.632;2023-02-01T07:35:51;101051.66;;;16.25;37.58
19150;BME280;9707;49.158;8.632;2023-02-01T07:38:17;101050.88;;;16.23;37.89
19150;BME280;9707;49.158;8.632;2023-02-01T07:40:42;101043.66;;;16.24;38.13
19150;BME280;9707;49.158;8.632;2023-02-01T07:43:08;101036.56;;;16.23;37.94
19150;BME280;9707;49.158;8.632;2023-02-01T07:45:35;101036.56;;;16.23;37.67
19150;BME280;9707;49.158;8.632;2023-02-01T07:48:01;101049.22;;;16.21;38.07
19150;BME280;9707;49.158;8.632;2023-02-01T07:50:26;101044.00;;;16.18;37.77
19150;BME280;9707;49.158;8.632;2023-02-01T07:52:52;101042.09;;;16.20;37.78
19150;BME280;9707;49.158;8.632;2023-02-01T07:55:21;101043.84;;;16.21;37.76
19150;BME280;9707;49.158;8.632;2023-02-01T07:57:47;101041.94;;;16.23;38.01
19150;BME280;9707;49.158;8.632;2023-02-01T08:00:13;101038.28;;;16.24;37.50
19150;BME280;9707;49.158;8.632;2023-02-01T08:02:58;101034.59;;;16.26;37.49
19150;BME280;9707;49.158;8.632;2023-02-01T08:05:24;101034.50;;;16.28;37.71
19150;BME280;9707;49.158;8.632;2023-02-01T08:07:49;101039.88;;;16.28;37.75
19150;BME280;9707;49.158;8.632;2023-02-01T08:10:16;101041.53;;;16.30;37.78
19150;BME280;9707;49.158;8.632;2023-02-01T08:12:41;101062.97;;;16.32;37.76
19150;BME280;9707;49.158;8.632;2023-02-01T08:15:06;101062.97;;;16.32;37.58
19150;BME280;9707;49.158;8.632;2023-02-01T08:17:32;101064.72;;;16.33;37.40
19150;BME280;9707;49.158;8.632;2023-02-01T08:19:57;101069.22;;;16.32;37.25
19150;BME280;9707;49.158;8.632;2023-02-01T08:22:22;101071.81;;;16.34;37.22
19150;BME280;9707;49.158;8.632;2023-02-01T08:24:48;101066.44;;;16.34;37.17
19150;BME280;9707;49.158;8.632;2023-02-01T08:27:13;101068.34;;;16.32;37.52
19150;BME280;9707;49.158;8.632;2023-02-01T08:29:39;101073.56;;;16.35;37.55
19150;BME280;9707;49.158;8.632;2023-02-01T08:32:04;101073.56;;;16.35;37.20
19150;BME280;9707;49.158;8.632;2023-02-01T08:34:30;101095.16;;;16.33;37.24
19150;BME280;9707;49.158;8.632;2023-02-01T08:36:55;101098.72;;;16.34;37.24
19150;BME280;9707;49.158;8.632;2023-02-01T08:39:24;101097.75;;;16.35;37.44
19150;BME280;9707;49.158;8.632;2023-02-01T08:41:49;101093.34;;;16.34;37.40
19150;BME280;9707;49.158;8.632;2023-02-01T08:44:35;101093.34;;;16.34;37.24
19150;BME280;9707;49.158;8.632;2023-02-01T08:47:01;101098.72;;;16.34;37.21
19150;BME280;9707;49.158;8.632;2023-02-01T08:49:26;101096.84;;;16.36;37.45
19150;BME280;9707;49.158;8.632;2023-02-01T08:51:51;101086.06;;;16.36;37.46
19150;BME280;9707;49.158;8.632;2023-02-01T08:54:16;101088.75;;;16.36;37.51
19150;BME280;9707;49.158;8.632;2023-02-01T08:56:42;101078.94;;;16.35;37.06
19150;BME280;9707;49.158;8.632;2023-02-01T08:59:07;101080.69;;;16.36;37.14
19150;BME280;9707;49.158;8.632;2023-02-01T09:01:32;101077.19;;;16.34;37.37
19150;BME280;9707;49.158;8.632;2023-02-01T09:03:57;101079.88;;;16.34;37.64
19150;BME280;9707;49.158;8.632;2023-02-01T09:06:23;101080.78;;;16.34;37.64
19150;BME280;9707;49.158;8.632;2023-02-01T09:08:48;101080.78;;;16.34;37.58
19150;BME280;9707;49.158;8.632;2023-02-01T09:11:16;101084.16;;;16.38;37.87
19150;BME280;9707;49.158;8.632;2023-02-01T09:13:42;101069.75;;;16.39;37.47
19150;BME280;9707;49.158;8.632;2023-02-01T09:16:08;101080.53;;;16.39;37.48
19150;BME280;9707;49.158;8.632;2023-02-01T09:18:34;101081.19;;;16.44;37.38
19150;BME280;9707;49.158;8.632;2023-02-01T09:21:04;101073.59;;;16.52;37.24
19150;BME280;9707;49.158;8.632;2023-02-01T09:23:29;101071.38;;;16.60;36.89
19150;BME280;9707;49.158;8.632;2023-02-01T09:25:59;101081.09;;;16.62;36.91
19150;BME280;9707;49.158;8.632;2023-02-01T09:28:24;101094.66;;;16.61;36.96
19150;BME280;9707;49.158;8.632;2023-02-01T09:30:49;101097.34;;;16.61;36.89
19150;BME280;9707;49.158;8.632;2023-02-01T09:33:14;101099.22;;;16.59;37.02
19150;BME280;9707;49.158;8.632;2023-02-01T09:35:42;101097.50;;;16.58;36.96
19150;BME280;9707;49.158;8.632;2023-02-01T09:38:07;101093.06;;;16.57;36.90
19150;BME280;9707;49.158;8.632;2023-02-01T09:40:34;101111.91;;;16.57;37.17
19150;BME280;9707;49.158;8.632;2023-02-01T09:45:59;101100.25;;;16.56;37.01
19150;BME280;9707;49.158;8.632;2023-02-01T09:48:32;101104.78;;;16.56;37.15
19150;BME280;9707;49.158;8.632;2023-02-01T09:50:59;101111.91;;;16.57;36.91
19150;BME280;9707;49.158;8.632;2023-02-01T09:53:31;101124.38;;;16.58;37.03
19150;BME280;9707;49.158;8.632;2023-02-01T09:56:12;101120.75;;;16.59;36.94
19150;BME280;9707;49.158;8.632;2023-02-01T09:58:42;101123.28;;;16.62;37.28
19150;BME280;9707;49.158;8.632;2023-02-01T10:01:25;101131.19;;;16.65;36.77
19150;BME280;9707;49.158;8.632;2023-02-01T10:03:57;101136.56;;;16.65;37.20
19150;BME280;9707;49.158;8.632;2023-02-01T10:06:33;101145.50;;;16.65;36.84
19150;BME280;9707;49.158;8.632;2023-02-01T10:09:15;101155.16;;;16.69;36.81
19150;BME280;9707;49.158;8.632;2023-02-01T10:16:57;101159.53;;;16.72;36.67
19150;BME280;9707;49.158;8.632;2023-02-01T10:22:14;101163.00;;;16.74;36.59
19150;BME280;9707;49.158;8.632;2023-02-01T10:27:48;101169.41;;;16.71;36.36
19150;BME280;9707;49.158;8.632;2023-02-01T10:30:19;101177.41;;;16.73;36.54
19150;BME280;9707;49.158;8.632;2023-02-01T10:32:48;101176.50;;;16.72;36.22
19150;BME280;9707;49.158;8.632;2023-02-01T10:35:22;101174.63;;;16.74;36.28
19150;BME280;9707;49.158;8.632;2023-02-01T10:37:48;101177.41;;;16.73;35.91
19150;BME280;9707;49.158;8.632;2023-02-01T10:40:19;101178.28;;;16.73;35.78
19150;BME280;9707;49.158;8.632;2023-02-01T10:42:50;101176.44;;;16.74;35.89
19150;BME280;9707;49.158;8.632;2023-02-01T10:45:22;101168.28;;;16.75;35.83
19150;BME280;9707;49.158;8.632;2023-02-01T10:47:51;101162.84;;;16.77;35.65
19150;BME280;9707;49.158;8.632;2023-02-01T10:50:35;101158.25;;;16.79;35.66
19150;BME280;9707;49.158;8.632;2023-02-01T10:53:11;101157.28;;;16.80;35.79
19150;BME280;9707;49.158;8.632;2023-02-01T10:55:46;101155.56;;;16.79;35.96
19150;BME280;9707;49.158;8.632;2023-02-01T10:58:19;101157.28;;;16.80;35.77
19150;BME280;9707;49.158;8.632;2023-02-01T11:00:53;101146.53;;;16.80;35.60
19150;BME280;9707;49.158;8.632;2023-02-01T11:03:40;101140.09;;;16.82;35.81
19150;BME280;9707;49.158;8.632;2023-02-01T11:06:21;101131.09;;;16.83;35.43
19150;BME280;9707;49.158;8.632;2023-02-01T11:08:53;101129.19;;;16.85;35.63
19150;BME280;9707;49.158;8.632;2023-02-01T11:11:20;101120.25;;;16.85;35.63
19150;BME280;9707;49.158;8.632;2023-02-01T11:13:52;101121.06;;;16.87;35.45
19150;BME280;9707;49.158;8.632;2023-02-01T11:16:18;101125.56;;;16.86;35.19
19150;BME280;9707;49.158;8.632;2023-02-01T11:18:43;101113.91;;;16.86;35.49
19150;BME280;9707;49.158;8.632;2023-02-01T11:21:09;101095.06;;;16.86;35.48
19150;BME280;9707;49.158;8.632;2023-02-01T11:23:42;101087.00;;;16.86;35.17
19150;BME280;9707;49.158;8.632;2023-02-01T11:26:21;101081.59;;;16.86;35.11
19150;BME280;9707;49.158;8.632;2023-02-01T11:29:12;101074.50;;;16.85;35.29
19150;BME280;9707;49.158;8.632;2023-02-01T11:31:39;101077.25;;;16.83;35.03
19150;BME280;9707;49.158;8.632;2023-02-01T11:34:18;101077.38;;;16.82;34.98
19150;BME280;9707;49.158;8.632;2023-02-01T11:36:46;101084.56;;;16.81;34.99
19150;BME280;9707;49.158;8.632;2023-02-01T11:41:58;101076.41;;;16.83;35.13
19150;BME280;9707;49.158;8.632;2023-02-01T11:44:32;101070.16;;;16.82;35.08
19150;BME280;9707;49.158;8.632;2023-02-01T11:49:47;101075.53;;;16.82;34.88
19150;BME280;9707;49.158;8.632;2023-02-01T12:06:07;101068.34;;;16.83;34.80
19150;BME280;9707;49.158;8.632;2023-02-01T12:11:51;101066.50;;;16.83;34.60
19150;BME280;9707;49.158;8.632;2023-02-01T12:17:24;101077.25;;;16.83;34.66
19150;BME280;9707;49.158;8.632;2023-02-01T12:20:33;101078.16;;;16.84;34.47
19150;BME280;9707;49.158;8.632;2023-02-01T12:25:44;101071.03;;;16.83;34.13
19150;BME280;9707;49.158;8.632;2023-02-01T12:31:20;101075.00;;;16.76;33.66
19150;BME280;9707;49.158;8.632;2023-02-01T12:36:44;101083.84;;;16.78;34.08
19150;BME280;9707;49.158;8.632;2023-02-01T12:39:31;101081.16;;;16.78;34.02
19150;BME280;9707;49.158;8.632;2023-02-01T12:42:07;101078.47;;;16.78;33.72
19150;BME280;9707;49.158;8.632;2023-02-01T12:44:49;101076.66;;;16.78;33.71
19150;BME280;9707;49.158;8.632;2023-02-01T12:47:31;101075.78;;;16.78;33.67
19150;BME280;9707;49.158;8.632;2023-02-01T12:50:02;101068.69;;;16.77;33.81
19150;BME280;9707;49.158;8.632;2023-02-01T12:52:35;101067.72;;;16.78;33.55
19150;BME280;9707;49.158;8.632;2023-02-01T12:55:24;101061.38;;;16.79;34.01
19150;BME280;9707;49.158;8.632;2023-02-01T12:57:56;101053.31;;;16.79;33.96
19150;BME280;9707;49.158;8.632;2023-02-01T13:03:07;101049.44;;;16.84;34.44
19150;BME280;9707;49.158;8.632;2023-02-01T13:06:07;101052.00;;;16.86;34.41
19150;BME280;9707;49.158;8.632;2023-02-01T13:09:05;101051.09;;;16.87;34.35
19150;BME280;9707;49.158;8.632;2023-02-01T13:11:37;101045.69;;;16.87;34.00
19150;BME280;9707;49.158;8.632;2023-02-01T13:17:22;101038.56;;;16.86;34.05
19150;BME280;9707;49.158;8.632;2023-02-01T13:20:06;101031.44;;;16.85;33.95
19150;BME280;9707;49.158;8.632;2023-02-01T13:22:41;101026.94;;;16.85;33.76
19150;BME280;9707;49.158;8.632;2023-02-01T13:25:15;101025.09;;;16.86;33.84
19150;BME280;9707;49.158;8.632;2023-02-01T13:27:41;101010.81;;;16.85;33.79
19150;BME280;9707;49.158;8.632;2023-02-01T13:30:16;101011.66;;;16.86;33.96
19150;BME280;9707;49.158;8.632;2023-02-01T13:33:11;101005.41;;;16.85;33.64
19150;BME280;9707;49.158;8.632;2023-02-01T13:41:32;100986.84;;;16.81;33.62
19150;BME280;9707;49.158;8.632;2023-02-01T13:44:03;100998.47;;;16.81;33.99
19150;BME280;9707;49.158;8.632;2023-02-01T13:46:39;100999.16;;;16.85;34.07
19150;BME280;9707;49.158;8.632;2023-02-01T13:49:04;100988.38;;;16.85;33.70
19150;BME280;9707;49.158;8.632;2023-02-01T13:51:35;100993.78;;;16.85;33.53
19150;BME280;9707;49.158;8.632;2023-02-01T13:54:01;100984.03;;;16.82;33.59
19150;BME280;9707;49.158;8.632;2023-02-01T13:56:42;100984.03;;;16.82;33.24
19150;BME280;9707;49.158;8.632;2023-02-01T13:59:52;100993.97;;;16.82;33.13
19150;BME280;9707;49.158;8.632;2023-02-01T14:02:36;101011.13;;;16.79;33.02
19150;BME280;9707;49.158;8.632;2023-02-01T14:05:02;101008.53;;;16.78;32.96
19150;BME280;9707;49.158;8.632;2023-02-01T14:07:28;101011.13;;;16.79;33.39
19150;BME280;9707;49.158;8.632;2023-02-01T14:09:53;101013.75;;;16.81;32.60
19150;BME280;9707;49.158;8.632;2023-02-01T14:12:45;101011.06;;;16.81;32.74
19150;BME280;9707;49.158;8.632;2023-02-01T14:15:21;101014.78;;;16.78;32.74
19150;BME280;9707;49.158;8.632;2023-02-01T14:17:48;101021.03;;;16.79;32.84
19150;BME280;9707;49.158;8.632;2023-02-01T14:20:41;101019.28;;;16.78;33.27
19150;BME280;9707;49.158;8.632;2023-02-01T14:23:19;101030.06;;;16.78;33.45
19150;BME280;9707;49.158;8.632;2023-02-01T14:25:45;101033.63;;;16.78;33.73
19150;BME280;9707;49.158;8.632;2023-02-01T14:28:23;101029.91;;;16.81;33.89
19150;BME280;9707;49.158;8.632;2023-02-01T14:30:50;101029.72;;;16.84;33.68
19150;BME280;9707;49.158;8.632;2023-02-01T14:33:21;101033.16;;;16.86;33.63
19150;BME280;9707;49.158;8.632;2023-02-01T14:36:09;101024.19;;;16.87;33.58
19150;BME280;9707;49.158;8.632;2023-02-01T14:38:36;101022.41;;;16.86;33.03
19150;BME280;9707;49.158;8.632;2023-02-01T14:41:27;101020.69;;;16.85;32.71